Time;durP1;ratioP1;P1;durP2;ratioP2;P2;SDS_P1;SDS_P2;PMS_P1;PMS_P2;Temp;Humidity;BMP_temperature;BMP_pressure;BME280_temperature;BME280_humidity;BME280_pressure;Samples;Min_cycle;Max_cycle;Signal;HPM_P1;HPM_P2
2021/05/13 00:00:31;;;;;;;14.93;10.40;;;14.60;99.90;;;;;;5119818;27;20176;-67
2021/05/13 00:02:56;;;;;;;15.67;9.90;;;14.50;99.90;;;;;;5119851;27;20230;-67
2021/05/13 00:05:22;;;;;;;16.70;11.10;;;14.70;99.90;;;;;;5119596;27;20183;-68
2021/05/13 00:07:48;;;;;;;13.97;10.10;;;14.70;99.90;;;;;;5119555;27;20203;-66
2021/05/13 00:10:17;;;;;;;18.60;10.87;;;14.70;99.90;;;;;;5119678;27;20451;-68
2021/05/13 00:12:50;;;;;;;18.13;12.57;;;14.70;99.90;;;;;;5137891;27;20198;-67
2021/05/13 00:15:25;;;;;;;17.40;10.87;;;14.70;99.90;;;;;;5138163;27;20404;-69
2021/05/13 00:17:52;;;;;;;15.93;12.20;;;14.80;99.90;;;;;;5137991;27;20526;-68
2021/05/13 00:20:24;;;;;;;19.07;11.40;;;14.80;99.90;;;;;;5137911;27;20485;-70
2021/05/13 00:22:50;;;;;;;14.23;10.07;;;14.80;99.90;;;;;;5137834;27;20435;-66
2021/05/13 00:25:16;;;;;;;18.43;11.13;;;14.80;99.90;;;;;;5137824;27;20399;-67
2021/05/13 00:27:42;;;;;;;17.20;10.07;;;14.70;99.90;;;;;;5137596;27;20829;-67
2021/05/13 00:30:08;;;;;;;16.87;10.67;;;14.70;99.90;;;;;;5137543;27;20458;-69
2021/05/13 00:32:36;;;;;;;20.57;11.77;;;14.70;99.90;;;;;;5137589;27;20967;-68
2021/05/13 00:35:08;;;;;;;16.20;10.63;;;14.50;99.90;;;;;;5137534;27;20450;-67
2021/05/13 00:37:33;;;;;;;20.83;10.93;;;14.40;99.90;;;;;;5137619;27;20412;-67
2021/05/13 00:39:59;;;;;;;15.37;10.63;;;14.40;99.90;;;;;;5137437;27;20391;-67
2021/05/13 00:42:25;;;;;;;17.87;10.93;;;14.50;99.90;;;;;;5137311;27;20578;-68
2021/05/13 00:45:00;;;;;;;15.30;10.70;;;14.50;99.90;;;;;;5137380;27;20217;-67
2021/05/13 00:47:28;;;;;;;13.43;9.13;;;14.50;99.90;;;;;;5118749;27;20227;-68
2021/05/13 00:49:54;;;;;;;16.03;10.80;;;14.40;99.90;;;;;;5137246;27;20438;-66
2021/05/13 00:52:21;;;;;;;14.20;9.97;;;14.30;99.90;;;;;;5137158;27;20412;-69
2021/05/13 00:54:48;;;;;;;15.47;11.00;;;14.40;99.90;;;;;;5118726;27;20495;-67
2021/05/13 00:57:13;;;;;;;14.90;9.40;;;14.30;99.90;;;;;;5137152;27;20881;-68
2021/05/13 00:59:42;;;;;;;12.57;10.23;;;14.10;99.90;;;;;;5137037;27;20454;-68
2021/05/13 01:02:07;;;;;;;17.07;11.33;;;14.20;99.90;;;;;;5137192;27;20659;-67
2021/05/13 01:04:33;;;;;;;14.40;10.87;;;13.90;99.90;;;;;;5118703;27;20455;-69
2021/05/13 01:06:59;;;;;;;16.13;11.27;;;14.00;99.90;;;;;;5118497;27;20258;-68
2021/05/13 01:09:28;;;;;;;17.13;10.87;;;14.00;99.90;;;;;;5137395;27;20199;-67
2021/05/13 01:11:55;;;;;;;13.67;10.00;;;13.90;99.90;;;;;;5136896;27;20395;-69
2021/05/13 01:14:40;;;;;;;18.67;12.13;;;14.00;99.90;;;;;;5136716;27;20480;-67
2021/05/13 01:19:41;;;;;;;18.00;11.97;;;13.80;99.90;;;;;;5137362;27;20773;-68
2021/05/13 01:22:07;;;;;;;18.90;12.97;;;13.90;99.90;;;;;;5118365;27;20775;-66
2021/05/13 01:24:33;;;;;;;17.93;12.47;;;13.80;99.90;;;;;;5137091;27;20488;-66
2021/05/13 01:26:59;;;;;;;21.60;14.13;;;13.90;99.90;;;;;;5136436;27;20171;-67
2021/05/13 01:29:27;;;;;;;20.70;12.93;;;13.90;99.90;;;;;;5117750;27;20431;-67
2021/05/13 01:31:54;;;;;;;20.90;12.87;;;13.80;99.90;;;;;;5136486;27;20391;-68
2021/05/13 01:34:21;;;;;;;17.83;12.83;;;13.90;99.90;;;;;;5136738;27;20466;-68
2021/05/13 01:36:46;;;;;;;17.93;12.23;;;13.90;99.90;;;;;;5117978;27;20414;-67
2021/05/13 01:39:13;;;;;;;16.87;12.00;;;13.80;99.90;;;;;;5136806;27;20438;-67
2021/05/13 01:41:40;;;;;;;17.73;12.13;;;13.70;99.90;;;;;;5136292;27;20176;-68
2021/05/13 01:44:06;;;;;;;19.40;13.43;;;13.90;99.90;;;;;;5136170;27;20488;-67
2021/05/13 01:46:33;;;;;;;17.40;12.77;;;14.00;99.90;;;;;;5117631;27;20415;-68
2021/05/13 01:48:59;;;;;;;17.73;12.37;;;14.00;99.90;;;;;;5136444;27;20439;-67
2021/05/13 01:51:25;;;;;;;18.73;12.80;;;14.00;99.90;;;;;;5117667;27;20465;-67
2021/05/13 01:53:51;;;;;;;17.07;12.87;;;14.00;99.90;;;;;;5135792;27;20495;-67
2021/05/13 01:56:16;;;;;;;19.93;13.83;;;14.10;99.90;;;;;;5117694;27;20228;-67
2021/05/13 01:58:43;;;;;;;19.27;13.90;;;14.00;99.90;;;;;;5136181;27;20435;-68
2021/05/13 02:01:11;;;;;;;19.00;13.57;;;13.90;99.90;;;;;;5136001;27;20182;-69
2021/05/13 02:03:38;;;;;;;18.93;12.53;;;13.90;99.90;;;;;;5135983;27;20446;-67
2021/05/13 02:06:04;;;;;;;19.60;13.03;;;13.90;99.90;;;;;;5135641;27;20407;-67
2021/05/13 02:08:30;;;;;;;18.00;12.57;;;13.90;99.90;;;;;;5135474;27;20443;-66
2021/05/13 02:10:56;;;;;;;23.20;13.10;;;14.00;99.90;;;;;;5135767;27;21098;-67
2021/05/13 02:13:22;;;;;;;17.50;12.23;;;14.00;99.90;;;;;;5135293;27;20565;-68
2021/05/13 02:15:48;;;;;;;18.50;12.63;;;14.00;99.90;;;;;;5135693;27;20222;-68
2021/05/13 02:18:13;;;;;;;20.50;13.63;;;14.10;99.90;;;;;;5117261;27;20199;-68
2021/05/13 02:20:39;;;;;;;21.00;13.53;;;14.10;99.90;;;;;;5135573;27;20179;-67
2021/05/13 02:23:05;;;;;;;20.10;13.00;;;14.00;99.90;;;;;;5135648;27;20202;-68
2021/05/13 02:25:31;;;;;;;19.27;13.13;;;14.00;99.90;;;;;;5135571;27;20395;-68
2021/05/13 02:27:58;;;;;;;19.53;13.50;;;14.00;99.90;;;;;;5135238;27;20591;-67
2021/05/13 02:30:24;;;;;;;18.20;13.50;;;14.00;99.90;;;;;;5116859;27;20536;-67
2021/05/13 02:32:49;;;;;;;18.03;13.83;;;13.90;99.90;;;;;;5116907;27;20480;-66
2021/05/13 02:35:16;;;;;;;20.07;13.53;;;13.80;99.90;;;;;;5135269;27;20174;-68
2021/05/13 02:37:43;;;;;;;19.10;13.00;;;13.70;99.90;;;;;;5135197;27;20195;-68
2021/05/13 02:40:10;;;;;;;20.83;14.67;;;13.60;99.90;;;;;;5116669;27;20407;-69
2021/05/13 02:42:36;;;;;;;20.90;15.90;;;13.50;99.90;;;;;;5135154;27;20500;-67
2021/05/13 02:45:03;;;;;;;24.47;15.13;;;13.40;99.90;;;;;;5135173;27;20403;-67
2021/05/13 02:47:29;;;;;;;22.70;16.53;;;13.30;99.90;;;;;;5134975;27;20403;-68
2021/05/13 02:49:55;;;;;;;24.20;15.97;;;13.20;99.90;;;;;;5135009;27;20406;-68
2021/05/13 02:52:20;;;;;;;26.70;17.00;;;13.20;99.90;;;;;;5134933;27;20171;-67
2021/05/13 02:54:46;;;;;;;23.27;15.77;;;13.10;99.90;;;;;;5134894;27;20195;-68
2021/05/13 02:57:12;;;;;;;21.73;15.93;;;13.10;99.90;;;;;;5116465;27;20179;-68
2021/05/13 02:59:56;;;;;;;23.93;15.10;;;13.00;99.90;;;;;;5116683;27;20217;-68
2021/05/13 03:02:22;;;;;;;22.97;16.03;;;12.90;99.90;;;;;;5134938;27;20407;-68
2021/05/13 03:04:47;;;;;;;22.00;15.60;;;12.90;99.90;;;;;;5134837;27;20768;-68
2021/05/13 03:07:13;;;;;;;26.37;16.00;;;13.00;99.90;;;;;;5134666;27;20175;-67
2021/05/13 03:09:44;;;;;;;22.47;14.70;;;13.00;99.90;;;;;;5135285;27;20511;-69
2021/05/13 03:12:09;;;;;;;22.80;15.23;;;12.90;99.90;;;;;;5134890;27;20400;-67
2021/05/13 03:14:36;;;;;;;20.30;13.70;;;12.90;99.90;;;;;;5135101;27;20546;-67
2021/05/13 03:17:02;;;;;;;21.83;14.20;;;12.80;99.90;;;;;;5134741;27;20171;-70
2021/05/13 03:19:32;;;;;;;21.90;13.80;;;12.80;99.90;;;;;;5116402;28;20439;-67
2021/05/13 03:22:00;;;;;;;21.73;14.27;;;12.90;99.90;;;;;;5134646;28;20180;-70
2021/05/13 03:27:12;;;;;;;18.10;12.17;;;12.90;99.90;;;;;;5139141;27;20464;-67
2021/05/13 03:29:38;;;;;;;17.00;13.27;;;13.00;99.90;;;;;;5139163;27;20419;-68
2021/05/13 03:32:05;;;;;;;14.77;11.33;;;13.00;99.90;;;;;;5120536;27;20414;-67
2021/05/13 03:34:30;;;;;;;17.23;11.53;;;13.00;99.90;;;;;;5139109;27;20244;-67
2021/05/13 03:36:56;;;;;;;15.70;10.93;;;13.00;99.90;;;;;;5138746;27;20411;-69
2021/05/13 03:39:21;;;;;;;14.63;10.90;;;13.10;99.90;;;;;;5139161;27;20198;-68
2021/05/13 03:41:47;;;;;;;14.10;10.03;;;13.10;99.90;;;;;;5138655;27;20167;-67
2021/05/13 03:44:12;;;;;;;13.63;10.37;;;13.00;99.90;;;;;;5120385;27;20226;-67
2021/05/13 03:46:38;;;;;;;12.07;9.63;;;12.90;99.90;;;;;;5138401;27;20543;-69
2021/05/13 03:49:04;;;;;;;11.63;10.07;;;13.00;99.90;;;;;;5138908;27;20210;-69
2021/05/13 03:51:29;;;;;;;11.30;9.33;;;13.10;99.90;;;;;;5138492;27;20250;-68
2021/05/13 03:53:55;;;;;;;10.37;7.67;;;13.10;99.90;;;;;;5138720;27;20265;-69
2021/05/13 03:56:21;;;;;;;9.70;7.43;;;13.20;99.90;;;;;;5137823;27;20179;-69
2021/05/13 03:58:52;;;;;;;9.50;8.47;;;13.30;99.90;;;;;;5137981;27;20588;-66
2021/05/13 04:01:31;;;;;;;9.17;7.20;;;13.40;99.90;;;;;;5138253;27;20418;-70
2021/05/13 04:03:56;;;;;;;10.00;7.93;;;13.30;99.90;;;;;;5137224;27;20461;-68
2021/05/13 04:06:22;;;;;;;12.63;8.20;;;13.40;99.90;;;;;;5136298;27;20556;-69
2021/05/13 04:08:51;;;;;;;11.43;8.20;;;13.50;99.90;;;;;;5138252;27;20656;-67
2021/05/13 04:11:17;;;;;;;11.40;7.60;;;13.50;99.90;;;;;;5138043;27;20179;-70
2021/05/13 04:13:43;;;;;;;8.83;7.77;;;13.50;99.90;;;;;;5119168;27;20471;-67
2021/05/13 04:16:09;;;;;;;10.50;7.50;;;13.50;99.90;;;;;;5137494;27;20237;-68
2021/05/13 04:18:34;;;;;;;8.60;6.90;;;13.50;99.90;;;;;;5137558;27;20470;-67
2021/05/13 04:21:00;;;;;;;9.80;7.43;;;13.50;99.90;;;;;;5137921;27;20181;-69
2021/05/13 04:23:26;;;;;;;10.47;7.67;;;13.50;99.90;;;;;;5136557;27;20203;-67
2021/05/13 04:25:51;;;;;;;8.93;7.73;;;13.60;99.90;;;;;;5137733;27;20234;-69
2021/05/13 04:28:17;;;;;;;10.60;7.70;;;13.60;99.90;;;;;;5136682;27;20202;-68
2021/05/13 04:30:43;;;;;;;9.33;6.73;;;13.70;99.90;;;;;;5137613;27;20242;-68
2021/05/13 04:33:09;;;;;;;10.10;7.30;;;13.70;99.90;;;;;;5116649;27;20199;-68
2021/05/13 04:35:35;;;;;;;10.10;7.10;;;13.90;99.90;;;;;;5117728;27;20840;-68
2021/05/13 04:38:00;;;;;;;15.93;8.27;;;13.90;99.90;;;;;;5116718;27;20190;-67
2021/05/13 04:40:26;;;;;;;8.70;7.80;;;13.90;99.90;;;;;;5135889;27;20427;-67
2021/05/13 04:42:52;;;;;;;9.87;8.47;;;13.80;99.90;;;;;;5136422;27;20656;-69
2021/05/13 04:45:17;;;;;;;9.83;6.53;;;13.90;99.90;;;;;;5137434;27;20231;-69
2021/05/13 04:50:10;;;;;;;7.97;7.00;;;13.90;99.90;;;;;;5133806;27;20179;-68
2021/05/13 04:52:37;;;;;;;9.10;7.43;;;13.90;99.90;;;;;;5136316;27;20210;-69
2021/05/13 04:55:05;;;;;;;12.47;8.70;;;13.90;99.90;;;;;;5114248;27;20477;-67
2021/05/13 04:57:31;;;;;;;9.43;7.70;;;13.90;99.90;;;;;;5130825;27;20418;-68
2021/05/13 05:00:02;;;;;;;10.20;6.80;;;13.90;99.90;;;;;;5132669;27;20510;-68
2021/05/13 05:02:28;;;;;;;12.53;8.43;;;14.00;99.90;;;;;;5118058;27;20454;-67
2021/05/13 05:04:53;;;;;;;9.40;7.63;;;14.20;99.90;;;;;;5133816;27;20827;-68
2021/05/13 05:07:19;;;;;;;8.53;7.40;;;14.20;99.90;;;;;;5097777;28;20407;-67
2021/05/13 05:09:44;;;;;;;42.90;26.93;;;14.30;99.90;;;;;;5116263;28;20176;-68
2021/05/13 05:12:12;;;;;;;9.60;7.63;;;14.10;99.90;;;;;;5135777;27;20182;-70
2021/05/13 05:14:38;;;;;;;13.40;9.17;;;14.00;99.90;;;;;;5116477;27;20267;-67
2021/05/13 05:17:04;;;;;;;10.80;8.10;;;14.10;99.90;;;;;;5135117;27;20427;-69
2021/05/13 05:19:30;;;;;;;13.27;9.27;;;14.10;99.90;;;;;;5135154;27;20446;-68
2021/05/13 05:21:56;;;;;;;9.17;8.10;;;14.20;99.90;;;;;;5134767;27;20190;-69
2021/05/13 05:24:22;;;;;;;9.87;8.00;;;14.40;99.90;;;;;;5135548;27;20459;-67
2021/05/13 05:26:47;;;;;;;14.47;7.93;;;14.50;99.90;;;;;;5117948;27;20644;-70
2021/05/13 05:29:13;;;;;;;15.97;8.80;;;14.50;99.90;;;;;;5132733;27;20781;-67
2021/05/13 05:31:38;;;;;;;10.03;7.50;;;14.50;99.90;;;;;;5133303;27;20239;-67
2021/05/13 05:34:04;;;;;;;7.13;6.40;;;14.60;99.90;;;;;;5115373;27;20218;-67
2021/05/13 05:36:29;;;;;;;9.63;7.17;;;14.50;99.90;;;;;;5135368;27;20175;-67
2021/05/13 05:38:55;;;;;;;16.73;7.73;;;14.60;99.90;;;;;;5134620;27;20199;-68
2021/05/13 05:41:25;;;;;;;7.23;6.53;;;14.70;99.90;;;;;;5115610;27;20179;-68
2021/05/13 05:43:50;;;;;;;8.10;7.30;;;14.60;99.90;;;;;;5133760;27;20474;-68
2021/05/13 05:46:16;;;;;;;7.20;5.10;;;14.80;99.90;;;;;;5134388;27;20454;-67
2021/05/13 05:48:42;;;;;;;7.30;5.23;;;14.80;99.90;;;;;;5131333;27;20213;-67
2021/05/13 05:51:08;;;;;;;8.03;5.93;;;14.80;99.90;;;;;;5132584;27;20639;-70
2021/05/13 05:53:33;;;;;;;7.83;5.83;;;14.90;99.90;;;;;;5132629;27;20995;-67
2021/05/13 05:55:59;;;;;;;7.40;5.80;;;15.00;99.90;;;;;;5114414;27;20179;-70
2021/05/13 05:58:25;;;;;;;6.37;5.73;;;15.00;99.90;;;;;;5134976;27;20195;-69
2021/05/13 06:00:50;;;;;;;5.60;5.10;;;15.00;99.90;;;;;;5116371;27;20190;-68
2021/05/13 06:03:16;;;;;;;5.87;5.33;;;15.10;99.90;;;;;;5135335;27;20222;-68
2021/05/13 06:05:42;;;;;;;9.47;6.00;;;15.20;99.90;;;;;;5132822;27;20194;-68
2021/05/13 06:08:07;;;;;;;5.83;5.10;;;15.20;99.90;;;;;;5133666;27;20202;-70
2021/05/13 06:10:33;;;;;;;5.57;5.07;;;15.10;99.90;;;;;;5133384;27;20178;-70
2021/05/13 06:12:59;;;;;;;5.67;5.17;;;15.20;99.90;;;;;;5132604;27;20207;-67
2021/05/13 06:15:25;;;;;;;7.30;5.43;;;15.30;99.90;;;;;;5133106;27;20431;-71
2021/05/13 06:17:51;;;;;;;7.70;5.17;;;15.30;99.90;;;;;;5134683;27;20238;-69
2021/05/13 06:20:23;;;;;;;6.80;5.20;;;15.40;99.90;;;;;;5133585;27;20803;-68
2021/05/13 06:22:49;;;;;;;6.50;4.50;;;15.30;99.90;;;;;;5132846;27;20757;-70
2021/05/13 06:25:16;;;;;;;5.50;5.00;;;15.20;99.90;;;;;;5134966;27;20483;-69
2021/05/13 06:27:42;;;;;;;5.03;4.53;;;15.30;99.90;;;;;;5113040;27;20554;-67
2021/05/13 06:30:09;;;;;;;5.70;5.10;;;15.30;99.90;;;;;;5132962;27;20553;-70
2021/05/13 06:32:35;;;;;;;5.27;4.77;;;15.40;99.90;;;;;;5133590;27;20458;-69
2021/05/13 06:35:01;;;;;;;5.43;4.90;;;15.50;99.90;;;;;;5131894;27;20451;-70
2021/05/13 06:37:27;;;;;;;8.73;5.83;;;15.60;99.90;;;;;;5114024;27;20234;-67
2021/05/13 06:39:52;;;;;;;7.43;5.00;;;15.40;99.90;;;;;;5133217;27;20515;-69
2021/05/13 06:42:18;;;;;;;5.37;4.87;;;15.40;99.90;;;;;;5133334;27;20658;-68
2021/05/13 06:44:44;;;;;;;9.20;7.57;;;15.50;99.90;;;;;;5134298;27;20235;-69
2021/05/13 06:47:12;;;;;;;111.37;60.53;;;15.60;99.90;;;;;;5123847;27;20265;-69
2021/05/13 06:49:38;;;;;;;5.13;4.63;;;15.60;99.90;;;;;;5130876;27;20175;-69
2021/05/13 06:52:04;;;;;;;5.93;4.90;;;15.60;99.90;;;;;;5113837;27;20420;-70
2021/05/13 06:54:30;;;;;;;5.03;4.47;;;15.60;99.90;;;;;;5133473;27;20482;-70
2021/05/13 06:56:55;;;;;;;5.90;4.93;;;15.60;99.90;;;;;;5128335;27;20440;-67
2021/05/13 06:59:21;;;;;;;7.27;5.07;;;15.50;99.90;;;;;;5113193;27;20201;-67
2021/05/13 07:01:47;;;;;;;5.77;4.80;;;15.50;99.90;;;;;;5129246;27;20190;-68
2021/05/13 07:04:12;;;;;;;5.30;4.80;;;15.60;99.90;;;;;;5113212;27;20559;-69
2021/05/13 07:06:38;;;;;;;5.47;4.97;;;15.80;99.90;;;;;;5130111;27;20422;-70
2021/05/13 07:09:07;;;;;;;4.90;4.50;;;15.90;99.90;;;;;;5131839;27;20273;-70
2021/05/13 07:11:33;;;;;;;6.13;4.57;;;16.00;99.90;;;;;;5112970;27;20190;-70
2021/05/13 07:13:59;;;;;;;5.27;4.77;;;16.10;99.90;;;;;;5130073;27;20466;-69
2021/05/13 07:16:26;;;;;;;5.50;4.00;;;16.20;99.90;;;;;;5110625;27;20475;-69
2021/05/13 07:18:53;;;;;;;4.70;4.30;;;16.20;99.90;;;;;;5128010;27;20191;-69
2021/05/13 07:21:19;;;;;;;4.87;4.20;;;16.60;99.90;;;;;;5126368;27;20541;-68
2021/05/13 07:23:45;;;;;;;6.23;3.53;;;16.80;99.90;;;;;;5124986;28;20459;-69
2021/05/13 07:26:11;;;;;;;4.33;3.93;;;16.60;99.90;;;;;;5113711;28;21015;-71
2021/05/13 07:28:38;;;;;;;4.70;4.30;;;16.70;99.90;;;;;;5128739;28;20661;-67
2021/05/13 07:31:04;;;;;;;4.30;3.90;;;16.90;99.90;;;;;;5118420;28;20946;-69
2021/05/13 07:33:30;;;;;;;4.40;3.97;;;17.00;99.90;;;;;;5122404;27;20463;-67
2021/05/13 07:35:56;;;;;;;4.97;3.87;;;17.00;99.90;;;;;;5110285;28;20431;-68
2021/05/13 07:38:21;;;;;;;4.70;3.57;;;16.80;99.90;;;;;;5129035;28;20443;-69
2021/05/13 07:40:47;;;;;;;7.70;4.10;;;17.10;99.90;;;;;;5129029;28;20179;-68
2021/05/13 07:43:13;;;;;;;3.50;3.20;;;17.10;99.90;;;;;;5129694;28;20227;-69
2021/05/13 07:45:43;;;;;;;4.97;3.27;;;17.10;99.90;;;;;;5130662;28;20467;-70
2021/05/13 07:48:10;;;;;;;7.70;3.73;;;17.10;99.90;;;;;;5130492;27;20194;-69
2021/05/13 07:50:35;;;;;;;5.27;3.40;;;17.50;99.90;;;;;;5110928;28;20430;-69
2021/05/13 07:53:05;;;;;;;3.07;2.87;;;17.40;99.90;;;;;;5127044;28;20459;-68
2021/05/13 07:55:30;;;;;;;4.00;2.67;;;17.60;99.90;;;;;;5130165;28;20720;-68
2021/05/13 07:57:56;;;;;;;3.20;2.40;;;17.80;99.90;;;;;;5130706;28;20446;-68
2021/05/13 08:00:22;;;;;;;3.03;2.73;;;17.90;99.90;;;;;;5135057;27;20459;-68
2021/05/13 08:02:47;;;;;;;3.20;2.80;;;18.00;99.90;;;;;;5137838;27;20207;-70
2021/05/13 08:05:13;;;;;;;3.10;2.30;;;18.00;99.90;;;;;;5111975;28;20831;-69
2021/05/13 08:07:39;;;;;;;2.30;2.10;;;18.00;99.90;;;;;;5129642;28;20208;-70
2021/05/13 08:10:06;;;;;;;2.67;2.23;;;17.80;99.90;;;;;;5131149;27;20434;-69
2021/05/13 08:12:32;;;;;;;3.23;1.70;;;18.10;99.90;;;;;;5134931;27;20207;-67
2021/05/13 08:14:57;;;;;;;2.20;2.00;;;18.10;99.90;;;;;;5129885;27;20473;-70
2021/05/13 08:17:23;;;;;;;2.17;1.83;;;18.00;99.90;;;;;;5132622;27;20219;-69
2021/05/13 08:19:49;;;;;;;2.63;2.13;;;18.20;99.90;;;;;;5132186;27;20185;-69
2021/05/13 08:22:14;;;;;;;3.23;2.93;;;18.20;99.90;;;;;;5134641;27;20179;-69
2021/05/13 08:24:40;;;;;;;2.17;2.00;;;18.40;99.90;;;;;;5133626;27;20211;-67
2021/05/13 08:27:05;;;;;;;3.00;2.27;;;18.20;99.90;;;;;;5134299;27;20769;-70
2021/05/13 08:29:31;;;;;;;2.20;1.77;;;18.20;99.90;;;;;;5134937;27;20199;-70
2021/05/13 08:31:58;;;;;;;2.00;1.33;;;18.30;99.90;;;;;;5135075;27;20655;-68
2021/05/13 08:34:23;;;;;;;1.53;1.43;;;18.20;99.90;;;;;;5135964;27;20219;-69
2021/05/13 08:36:49;;;;;;;2.10;1.20;;;18.30;99.90;;;;;;5136329;27;20471;-68
2021/05/13 08:39:15;;;;;;;3.50;1.73;;;17.90;99.90;;;;;;5135372;27;20665;-70
2021/05/13 08:41:41;;;;;;;1.50;1.40;;;18.10;99.90;;;;;;5134113;27;20753;-67
2021/05/13 08:44:07;;;;;;;1.97;1.80;;;18.20;99.90;;;;;;5130774;27;20470;-68
2021/05/13 08:46:38;;;;;;;1.97;1.50;;;18.30;99.90;;;;;;5133561;27;20192;-70
2021/05/13 08:49:05;;;;;;;1.47;1.30;;;18.20;99.90;;;;;;5130551;27;20441;-67
2021/05/13 08:51:32;;;;;;;1.63;1.23;;;18.30;99.90;;;;;;5134624;27;20428;-68
2021/05/13 08:53:59;;;;;;;2.00;1.63;;;18.30;99.90;;;;;;5132582;27;20472;-70
2021/05/13 08:56:27;;;;;;;1.10;1.07;;;18.70;99.90;;;;;;5130396;27;20458;-68
2021/05/13 08:58:53;;;;;;;2.40;1.20;;;18.50;99.90;;;;;;5133173;27;20451;-67
2021/05/13 09:01:22;;;;;;;1.60;1.50;;;18.60;99.90;;;;;;5129410;27;20442;-69
2021/05/13 09:03:49;;;;;;;2.20;1.30;;;18.60;99.90;;;;;;5128669;27;20471;-68
2021/05/13 09:06:28;;;;;;;2.40;1.60;;;18.90;99.90;;;;;;5112640;27;20459;-67
2021/05/13 09:09:12;;;;;;;1.70;1.50;;;18.70;99.90;;;;;;5124457;27;20453;-68
2021/05/13 09:12:01;;;;;;;4.50;1.40;;;19.00;99.90;;;;;;5133137;27;20418;-70
2021/05/13 09:14:29;;;;;;;1.37;1.27;;;19.00;99.90;;;;;;5127263;27;20733;-70
2021/05/13 09:16:55;;;;;;;1.07;0.97;;;19.00;99.90;;;;;;5114028;27;20869;-69
2021/05/13 09:19:30;;;;;;;1.10;1.00;;;19.10;99.90;;;;;;5132178;27;20950;-69
2021/05/13 09:22:06;;;;;;;2.57;1.20;;;19.30;99.90;;;;;;5129363;27;20572;-67
2021/05/13 09:24:51;;;;;;;1.17;1.07;;;19.30;99.90;;;;;;5129468;27;20550;-69
2021/05/13 09:27:24;;;;;;;2.13;1.00;;;19.20;99.90;;;;;;5125636;27;20451;-69
2021/05/13 09:30:03;;;;;;;1.63;1.00;;;19.30;99.90;;;;;;5128276;27;20474;-69
2021/05/13 09:32:29;;;;;;;1.07;0.80;;;19.10;99.90;;;;;;5123528;27;20465;-68
2021/05/13 09:34:55;;;;;;;0.87;0.87;;;19.30;99.90;;;;;;5111588;27;20496;-68
2021/05/13 09:37:20;;;;;;;0.83;0.83;;;19.20;99.90;;;;;;5131625;27;20726;-70
2021/05/13 09:39:47;;;;;;;3.10;1.20;;;19.40;99.90;;;;;;5111726;27;20193;-68
2021/05/13 09:42:19;;;;;;;1.53;0.90;;;19.30;99.90;;;;;;5131100;27;20182;-70
2021/05/13 09:44:49;;;;;;;1.03;0.93;;;19.20;99.90;;;;;;5125120;27;20427;-70
2021/05/13 09:47:20;;;;;;;1.43;0.93;;;19.10;99.90;;;;;;5107416;27;20460;-70
2021/05/13 09:49:56;;;;;;;1.53;1.10;;;18.70;99.90;;;;;;5106199;27;20472;-70
2021/05/13 09:52:47;;;;;;;1.37;1.27;;;18.50;99.90;;;;;;5123700;27;20432;-68
2021/05/13 09:55:33;;;;;;;2.23;1.23;;;18.50;99.90;;;;;;5124224;27;20922;-67
2021/05/13 09:58:01;;;;;;;1.50;1.40;;;18.60;99.90;;;;;;5126274;27;20666;-68
2021/05/13 10:00:48;;;;;;;2.03;1.33;;;18.70;99.90;;;;;;5129095;27;20441;-69
2021/05/13 10:03:23;;;;;;;1.67;1.37;;;18.80;99.90;;;;;;5130854;27;21018;-69
2021/05/13 10:06:26;;;;;;;1.40;1.30;;;18.80;99.90;;;;;;5112391;27;20426;-67
2021/05/13 10:08:52;;;;;;;2.67;1.30;;;18.80;99.90;;;;;;5129206;27;20581;-69
2021/05/13 10:11:18;;;;;;;1.00;0.90;;;18.60;99.90;;;;;;5119771;27;20422;-68
2021/05/13 10:13:44;;;;;;;1.03;1.03;;;18.60;99.90;;;;;;5130739;27;20234;-67
2021/05/13 11:07:06;;;;;;;3.40;1.40;;;19.00;99.90;;;;;;5190376;22;20778;31
2021/05/13 11:09:37;;;;;;;2.23;1.40;;;18.40;99.90;;;;;;5025808;28;20507;-67
2021/05/13 11:12:14;;;;;;;3.97;2.73;;;18.40;99.90;;;;;;5028602;28;20547;-69
2021/05/13 11:20:28;;;;;;;1.40;1.30;;;18.10;99.90;;;;;;5026413;28;20430;-67
2021/05/13 11:23:21;;;;;;;3.70;1.73;;;18.20;99.90;;;;;;5028167;28;20456;-69
2021/05/13 11:25:51;;;;;;;2.70;1.53;;;18.20;99.90;;;;;;5028491;28;20483;-69
2021/05/13 11:28:33;;;;;;;6.50;1.70;;;18.00;99.90;;;;;;5026557;28;20459;-70
2021/05/13 11:31:04;;;;;;;2.30;1.60;;;18.10;99.90;;;;;;5025767;28;20437;-68
2021/05/13 11:33:45;;;;;;;2.70;1.60;;;18.10;99.90;;;;;;5027737;28;20457;-71
2021/05/13 11:36:16;;;;;;;1.57;1.40;;;18.20;99.90;;;;;;5031199;28;20432;-69
2021/05/13 11:38:43;;;;;;;1.50;1.40;;;18.20;99.90;;;;;;5031281;28;20521;-68
2021/05/13 11:41:09;;;;;;;1.73;1.60;;;18.20;99.90;;;;;;5050291;28;20426;-67
2021/05/13 11:43:39;;;;;;;3.03;1.63;;;18.30;99.90;;;;;;5024049;28;20483;-70
2021/05/13 11:46:07;;;;;;;2.87;1.80;;;18.50;99.90;;;;;;5047420;28;20506;-69
2021/05/13 11:48:42;;;;;;;1.60;1.50;;;18.50;99.90;;;;;;5033899;28;20528;-69
2021/05/13 11:51:21;;;;;;;4.40;1.40;;;18.40;99.90;;;;;;5030901;28;20430;-70
2021/05/13 11:53:48;;;;;;;1.70;1.33;;;18.20;99.90;;;;;;5026635;28;20481;-68
2021/05/13 11:56:15;;;;;;;2.10;1.27;;;18.50;99.90;;;;;;5028068;28;20777;-68
2021/05/13 11:58:47;;;;;;;1.70;1.20;;;18.30;99.90;;;;;;5033990;28;20829;-68
2021/05/13 12:01:34;;;;;;;3.23;1.43;;;18.20;99.90;;;;;;5035374;28;20440;-69
2021/05/13 12:04:04;;;;;;;2.33;1.57;;;18.20;99.90;;;;;;5024520;28;20467;-68
2021/05/13 12:07:02;;;;;;;2.60;1.30;;;18.30;99.90;;;;;;5034915;28;20457;-68
2021/05/13 12:09:35;;;;;;;1.93;1.73;;;18.30;99.90;;;;;;5030922;28;20475;-67
2021/05/13 12:12:02;;;;;;;3.37;1.60;;;18.40;99.90;;;;;;5055755;28;20435;-68
2021/05/13 12:14:31;;;;;;;1.27;1.17;;;18.50;99.90;;;;;;5043948;28;20515;-69
2021/05/13 12:16:58;;;;;;;4.80;1.50;;;18.40;99.90;;;;;;5033351;28;20442;-70
2021/05/13 12:19:25;;;;;;;1.57;1.43;;;18.50;99.90;;;;;;5040379;28;20416;-69
2021/05/13 12:21:56;;;;;;;1.30;1.17;;;18.20;99.90;;;;;;5031481;28;20510;-68
2021/05/13 12:24:43;;;;;;;1.90;1.13;;;18.20;99.90;;;;;;5034578;28;20459;-68
2021/05/13 12:27:14;;;;;;;3.50;1.60;;;18.30;99.90;;;;;;5032343;28;20482;-68
2021/05/13 12:29:50;;;;;;;3.90;1.93;;;18.50;99.90;;;;;;5030415;28;20431;-69
2021/05/13 12:32:33;;;;;;;2.90;1.10;;;18.60;99.90;;;;;;5033828;28;20802;-70
2021/05/13 12:34:59;;;;;;;1.27;1.20;;;18.80;99.90;;;;;;5035307;28;20467;-69
2021/05/13 12:37:25;;;;;;;5.60;1.60;;;19.00;99.90;;;;;;5032009;28;20436;-68
2021/05/13 12:39:52;;;;;;;1.27;1.17;;;19.40;99.90;;;;;;5029986;28;20433;-70
2021/05/13 12:42:31;;;;;;;1.80;1.50;;;19.80;99.90;;;;;;5030627;28;20535;-69
2021/05/13 12:45:16;;;;;;;2.23;1.30;;;19.50;99.90;;;;;;5027279;28;20517;-70
2021/05/13 12:47:43;;;;;;;1.13;1.13;;;19.40;99.90;;;;;;5025291;28;20441;-68
2021/05/13 12:50:09;;;;;;;3.77;1.37;;;19.60;99.90;;;;;;5033247;28;20420;-68
2021/05/13 12:52:35;;;;;;;2.13;1.37;;;19.60;99.90;;;;;;5028729;28;20450;-68
2021/05/13 12:55:10;;;;;;;1.87;1.30;;;19.70;99.90;;;;;;5032285;28;20998;-69
2021/05/13 12:57:42;;;;;;;4.13;1.90;;;19.90;99.90;;;;;;5034057;28;20456;-69
2021/05/13 13:00:08;;;;;;;3.10;1.60;;;20.30;99.90;;;;;;5032341;28;20795;-70
2021/05/13 13:02:34;;;;;;;2.00;1.27;;;20.10;99.90;;;;;;5030354;28;20488;-70
2021/05/13 13:05:02;;;;;;;2.00;1.90;;;20.30;99.90;;;;;;5033240;28;20462;-70
2021/05/13 13:07:44;;;;;;;1.43;1.30;;;20.90;99.90;;;;;;5031536;28;20478;-69
2021/05/13 13:10:33;;;;;;;1.17;0.90;;;21.00;99.90;;;;;;5033866;28;20423;-69
2021/05/13 13:13:08;;;;;;;2.10;0.97;;;21.10;99.90;;;;;;5033881;28;20455;-69
2021/05/13 13:15:43;;;;;;;6.10;0.83;;;20.80;99.90;;;;;;5032905;28;20529;-69
2021/05/13 13:18:10;;;;;;;3.03;0.80;;;20.80;99.90;;;;;;5030928;28;20444;-68
2021/05/13 13:20:38;;;;;;;3.43;1.10;;;20.40;99.90;;;;;;5031515;28;20540;-70
2021/05/13 13:23:27;;;;;;;1.57;1.00;;;20.60;99.90;;;;;;5029886;28;20447;-67
2021/05/13 13:25:59;;;;;;;3.23;1.20;;;20.10;99.90;;;;;;5030331;28;20521;-68
2021/05/13 13:28:25;;;;;;;0.90;0.70;;;20.00;99.90;;;;;;5031120;28;20475;-69
2021/05/13 13:30:58;;;;;;;10.23;1.67;;;20.00;99.90;;;;;;5031908;28;20492;-69
2021/05/13 13:33:25;;;;;;;1.10;0.90;;;20.10;99.90;;;;;;5033006;28;20813;-68
2021/05/13 13:35:56;;;;;;;1.43;0.93;;;20.00;99.90;;;;;;5032335;28;20427;-68
2021/05/13 13:38:22;;;;;;;1.93;1.00;;;20.00;99.90;;;;;;5033866;28;20477;-69
2021/05/13 13:40:50;;;;;;;3.43;1.20;;;20.10;99.90;;;;;;5034288;28;21037;-69
2021/05/13 13:43:16;;;;;;;2.07;0.70;;;20.10;99.90;;;;;;5033881;28;20537;-70
2021/05/13 13:45:43;;;;;;;1.00;0.90;;;20.30;99.90;;;;;;5035281;28;20414;-68
2021/05/13 13:48:11;;;;;;;1.70;1.10;;;20.00;99.90;;;;;;5030988;28;20445;-68
2021/05/13 13:50:38;;;;;;;1.53;1.03;;;20.20;99.90;;;;;;5033270;28;20422;-68